Weather at Leigh Creek Airport

Public forecast

Using degrees Celsius for public forecast. Weather courtesy of forecast.io.

Current aviation weather report (METAR) for Leigh Creek Airport

Retrieved 2021/06/15 03:00 UTC (55 minutes ago):

YLEC 150300Z AUTO 34011KT 9999 // SCT028 BKN036 OVC045 17/10 Q1011

Closest aviation forecast (TAF) to Leigh Creek Airport

Closest forecast is Woomera Airfield, 89.2 nm (165.1 km) WSW. Retrieved 2021-06-15 00:00 UTC (4 hours ago):

TAF YPWR 142333Z 1500/1518 33009KT 9999 FEW005 BKN050 FM150100 30015KT 9999 SCT050 FM150500 30018KT 9999 -SHRA BKN050 FM150700 27018G28KT 9999 -SHRA BKN050 FM150900 29012KT CAVOK INTER 1506/1508 30025G35KT 4000 SHRA BKN020